Terminal Aerodrome Forecast
Issued by NWS

Home | Current Version | Previous Version | Text Only | Print | Product List | Glossary On
Versions: 1 2 3 4 5 6 7 8 9 10 11 12 13 14 15 16 17 18 19 20 21 22 23 24 25
106
FTUS43 KGRR 111140
TAFBTL
TAF
KBTL 111140Z 1112/1212 16008KT 2SM -SN BR OVC025
     FM111400 15009KT 1/2SM SN FG OVC004
     FM120500 18007KT 2SM -SN BR OVC008
     FM120900 25010KT 5SM BR OVC015=

USA.gov is the U.S. government's official web portal to all federal, state and local government web resources and services.